createdAt,value
2024-04-19T00:01:23.849Z,5.76
2024-04-19T00:03:51.773Z,5.69
2024-04-19T00:06:19.349Z,5.66
2024-04-19T00:08:47.096Z,5.63
2024-04-19T00:11:14.834Z,5.62
2024-04-19T00:13:42.374Z,5.61
2024-04-19T00:16:09.857Z,5.59
2024-04-19T00:18:37.396Z,5.54
2024-04-19T00:21:05.141Z,5.59
2024-04-19T00:23:32.645Z,5.58
2024-04-19T00:26:00.275Z,5.55
2024-04-19T00:28:28.541Z,5.51
2024-04-19T00:30:56.694Z,5.54
2024-04-19T00:33:24.349Z,5.54
2024-04-19T00:35:51.970Z,5.55
2024-04-19T00:38:20.499Z,5.54
2024-04-19T00:40:48.000Z,5.55
2024-04-19T00:43:15.550Z,5.55
2024-04-19T00:45:43.137Z,5.52
2024-04-19T00:48:15.125Z,5.53
2024-04-19T00:50:46.236Z,5.53
2024-04-19T00:53:16.027Z,5.47
2024-04-19T00:55:43.520Z,5.46
2024-04-19T00:58:11.033Z,5.43
2024-04-19T01:00:38.701Z,5.40
2024-04-19T01:03:06.476Z,5.36
2024-04-19T01:05:34.083Z,5.32
2024-04-19T01:08:02.154Z,5.32
2024-04-19T01:10:30.778Z,5.31
2024-04-19T01:12:58.935Z,5.28
2024-04-19T01:15:26.926Z,5.25
2024-04-19T01:17:56.974Z,5.21
2024-04-19T01:20:24.594Z,5.16
2024-04-19T01:22:52.525Z,5.10
2024-04-19T01:25:26.620Z,5.11
2024-04-19T01:27:54.162Z,5.07
2024-04-19T01:30:21.835Z,5.05
2024-04-19T01:32:49.530Z,5.02
2024-04-19T01:35:17.198Z,4.99
2024-04-19T01:37:45.838Z,4.95
2024-04-19T01:40:13.374Z,4.93
2024-04-19T01:42:40.894Z,4.90
2024-04-19T01:45:08.419Z,4.87
2024-04-19T01:47:36.570Z,4.79
2024-04-19T01:50:07.573Z,4.77
2024-04-19T01:52:35.335Z,4.72
2024-04-19T01:55:03.465Z,4.68
2024-04-19T01:57:31.392Z,4.64
2024-04-19T01:59:58.949Z,4.62
2024-04-19T02:02:28.150Z,4.59
2024-04-19T02:04:57.101Z,4.61
2024-04-19T02:07:24.596Z,4.62
2024-04-19T02:09:52.149Z,4.61
2024-04-19T02:12:19.844Z,4.60
2024-04-19T02:14:47.418Z,4.59
2024-04-19T02:17:14.981Z,4.58
2024-04-19T02:19:44.562Z,4.59
2024-04-19T02:22:12.042Z,4.60
2024-04-19T02:24:42.448Z,4.60
2024-04-19T02:27:32.411Z,4.60
2024-04-19T02:30:20.055Z,4.53
2024-04-19T02:32:47.668Z,4.55
2024-04-19T02:35:15.508Z,4.53
2024-04-19T02:37:44.051Z,4.52
2024-04-19T02:40:11.569Z,4.50
2024-04-19T02:42:40.288Z,4.49
2024-04-19T02:45:08.208Z,4.44
2024-04-19T02:47:37.343Z,4.46
2024-04-19T02:50:04.989Z,4.45
2024-04-19T02:52:32.562Z,4.43
2024-04-19T02:55:03.706Z,4.41
2024-04-19T02:57:33.082Z,4.36
2024-04-19T03:00:00.706Z,4.39
2024-04-19T03:02:28.627Z,4.38
2024-04-19T03:04:56.393Z,4.38
2024-04-19T03:07:23.864Z,4.38
2024-04-19T03:09:51.781Z,4.39
2024-04-19T03:12:19.334Z,4.40
2024-04-19T03:14:47.626Z,4.42
2024-04-19T03:17:15.213Z,4.42
2024-04-19T03:19:42.908Z,4.43
2024-04-19T03:22:10.477Z,4.44
2024-04-19T03:24:38.011Z,4.44
2024-04-19T03:27:05.776Z,4.45
2024-04-19T03:29:33.279Z,4.44
2024-04-19T03:32:00.842Z,4.42
2024-04-19T03:34:28.625Z,4.45
2024-04-19T03:36:56.169Z,4.45
2024-04-19T03:39:23.775Z,4.46
2024-04-19T03:41:52.879Z,4.47
2024-04-19T03:44:39.084Z,4.48
2024-04-19T03:47:08.100Z,4.51
2024-04-19T03:49:35.672Z,4.53
2024-04-19T03:52:03.290Z,4.56
2024-04-19T03:54:30.861Z,4.59
2024-04-19T03:56:58.676Z,4.63
2024-04-19T03:59:27.716Z,4.61
2024-04-19T04:01:55.223Z,4.68
2024-04-19T04:04:22.856Z,4.71
2024-04-19T04:06:51.094Z,4.71
2024-04-19T04:09:18.947Z,4.71
2024-04-19T04:11:46.497Z,4.74
2024-04-19T04:14:14.084Z,4.77
2024-04-19T04:16:42.611Z,4.78
2024-04-19T04:19:10.192Z,4.76
2024-04-19T04:21:37.876Z,4.79
2024-04-19T04:24:06.311Z,4.81
2024-04-19T04:26:33.831Z,4.80
2024-04-19T04:29:01.530Z,4.82
2024-04-19T04:31:29.283Z,4.82
2024-04-19T04:33:58.860Z,4.83
2024-04-19T04:36:26.952Z,4.84
2024-04-19T04:38:54.448Z,4.85
2024-04-19T04:41:22.200Z,4.84
2024-04-19T04:43:50.136Z,4.89
2024-04-19T04:46:17.698Z,4.90
2024-04-19T04:48:45.310Z,4.92
2024-04-19T04:51:13.742Z,4.93
2024-04-19T04:53:41.296Z,4.94
2024-04-19T04:56:08.867Z,4.96
2024-04-19T04:58:36.385Z,4.97
2024-04-19T05:01:04.138Z,4.99
2024-04-19T05:03:33.237Z,4.99
2024-04-19T05:06:00.811Z,5.01
2024-04-19T05:08:31.331Z,5.02
2024-04-19T05:10:59.028Z,5.03
2024-04-19T05:13:28.451Z,5.04
2024-04-19T05:15:56.167Z,5.04
2024-04-19T05:18:23.775Z,5.05
2024-04-19T05:20:51.451Z,5.02
2024-04-19T05:23:19.352Z,5.08
2024-04-19T05:25:51.730Z,5.11
2024-04-19T05:28:21.977Z,5.13
2024-04-19T05:30:50.836Z,5.11
2024-04-19T05:33:18.509Z,5.18
2024-04-19T05:35:46.210Z,5.23
2024-04-19T05:38:13.793Z,5.28
2024-04-19T05:40:41.943Z,5.34
2024-04-19T05:43:10.537Z,5.42
2024-04-19T05:45:38.572Z,5.50
2024-04-19T05:48:06.759Z,5.57
2024-04-19T05:50:34.592Z,5.65
2024-04-19T05:53:02.432Z,5.75
2024-04-19T05:55:34.061Z,5.85
2024-04-19T05:58:01.628Z,5.94
2024-04-19T06:00:31.354Z,6.04
2024-04-19T06:02:58.999Z,6.13
2024-04-19T06:05:29.726Z,6.20
2024-04-19T06:07:58.294Z,6.29
2024-04-19T06:10:26.095Z,6.36
2024-04-19T06:12:54.656Z,6.40
2024-04-19T06:15:22.803Z,6.42
2024-04-19T06:17:55.404Z,6.43
2024-04-19T06:20:23.471Z,6.43
2024-04-19T06:22:51.139Z,6.43
2024-04-19T06:25:19.677Z,6.37
2024-04-19T06:27:49.188Z,6.40
2024-04-19T06:30:16.955Z,6.37
2024-04-19T06:32:44.636Z,6.36
2024-04-19T06:35:16.205Z,6.34
2024-04-19T06:37:43.624Z,6.34
2024-04-19T06:40:11.488Z,6.31
2024-04-19T06:42:39.222Z,6.30
2024-04-19T06:45:08.291Z,6.30
2024-04-19T06:47:35.991Z,6.32
2024-04-19T06:50:05.066Z,6.34
2024-04-19T06:52:32.647Z,6.36
2024-04-19T06:55:00.394Z,6.38
2024-04-19T06:57:28.073Z,6.40
2024-04-19T07:00:06.190Z,6.44
2024-04-19T07:02:48.662Z,6.47
2024-04-19T07:05:16.895Z,6.49
2024-04-19T07:07:49.039Z,6.50
2024-04-19T07:10:16.777Z,6.55
2024-04-19T07:12:44.467Z,6.60
2024-04-19T07:15:12.242Z,6.64
2024-04-19T07:17:40.954Z,6.69
2024-04-19T07:20:09.465Z,6.79
2024-04-19T07:22:37.181Z,6.82
2024-04-19T07:25:07.697Z,6.87
2024-04-19T07:27:42.801Z,6.90
2024-04-19T07:30:15.384Z,6.97
2024-04-19T07:32:43.044Z,7.05
2024-04-19T07:35:10.765Z,7.13
2024-04-19T07:37:38.385Z,7.21
2024-04-19T07:40:06.818Z,7.27
2024-04-19T07:42:35.410Z,7.31
2024-04-19T07:45:03.392Z,7.32
2024-04-19T07:47:31.567Z,7.36
2024-04-19T07:49:59.133Z,7.42
2024-04-19T07:52:27.056Z,7.50
2024-04-19T07:54:54.770Z,7.55
2024-04-19T07:57:22.304Z,7.65
2024-04-19T07:59:51.265Z,7.71
2024-04-19T08:02:21.645Z,7.77
2024-04-19T08:04:49.364Z,7.85
2024-04-19T08:07:24.143Z,7.97
2024-04-19T08:09:56.663Z,8.12
2024-04-19T08:12:24.966Z,8.27
2024-04-19T08:14:52.748Z,8.39
2024-04-19T08:17:21.094Z,8.47
2024-04-19T08:19:50.221Z,8.50
2024-04-19T08:22:18.272Z,8.52
2024-04-19T08:24:46.023Z,8.56
2024-04-19T08:27:13.664Z,8.58
2024-04-19T08:29:41.313Z,8.62
2024-04-19T08:32:10.351Z,8.63
2024-04-19T08:34:38.518Z,8.66
2024-04-19T08:37:06.122Z,8.72
2024-04-19T08:39:34.205Z,8.76
2024-04-19T08:42:06.578Z,8.80
2024-04-19T08:44:35.354Z,8.85
2024-04-19T08:47:03.123Z,8.91
2024-04-19T08:49:30.937Z,8.99
2024-04-19T08:52:13.749Z,9.04
2024-04-19T08:54:47.318Z,9.07
2024-04-19T08:57:17.213Z,9.07
2024-04-19T08:59:48.506Z,9.17
2024-04-19T09:02:20.274Z,9.21
2024-04-19T09:04:48.071Z,9.25
2024-04-19T09:07:15.621Z,9.30
2024-04-19T09:09:44.723Z,9.36
2024-04-19T09:12:14.542Z,9.43
2024-04-19T09:14:42.118Z,9.52
2024-04-19T09:17:09.630Z,9.57
2024-04-19T09:19:37.376Z,9.64
2024-04-19T09:22:05.171Z,9.72
2024-04-19T09:24:32.783Z,9.82
2024-04-19T09:27:14.185Z,9.91
2024-04-19T09:29:43.607Z,9.97
2024-04-19T09:32:11.406Z,9.98
2024-04-19T09:34:40.531Z,10.02
2024-04-19T09:37:08.464Z,10.03
2024-04-19T09:39:36.341Z,10.01
2024-04-19T09:42:06.333Z,9.99
2024-04-19T09:44:34.091Z,9.92
2024-04-19T09:47:06.101Z,9.85
2024-04-19T09:49:34.000Z,9.69
2024-04-19T09:52:02.663Z,9.57
2024-04-19T09:54:35.223Z,9.55
2024-04-19T09:57:04.879Z,9.61
2024-04-19T09:59:35.659Z,9.66
2024-04-19T10:02:06.615Z,9.72
2024-04-19T10:04:45.569Z,9.77
2024-04-19T10:07:15.424Z,9.90
2024-04-19T10:09:43.919Z,9.99
2024-04-19T10:12:13.290Z,10.07
2024-04-19T10:14:41.322Z,10.12
2024-04-19T10:17:08.948Z,10.16
2024-04-19T10:19:45.507Z,10.21
2024-04-19T10:22:23.679Z,10.30
2024-04-19T10:25:01.336Z,10.40
2024-04-19T10:27:30.641Z,10.51
2024-04-19T10:30:00.880Z,10.63
2024-04-19T10:32:30.297Z,10.70
2024-04-19T10:34:59.218Z,10.80
2024-04-19T10:37:31.155Z,10.82
2024-04-19T10:39:58.738Z,10.82
2024-04-19T10:42:26.444Z,10.79
2024-04-19T10:44:54.421Z,10.77
2024-04-19T10:47:24.702Z,10.84
2024-04-19T10:49:53.617Z,10.92
2024-04-19T10:52:23.627Z,10.95
2024-04-19T10:54:51.280Z,10.97
2024-04-19T10:57:20.282Z,10.96
2024-04-19T10:59:47.848Z,10.87
2024-04-19T11:02:17.300Z,10.76
2024-04-19T11:04:45.518Z,10.65
2024-04-19T11:07:13.329Z,10.51
2024-04-19T11:09:41.618Z,10.37
2024-04-19T11:12:10.147Z,10.24
2024-04-19T11:14:37.843Z,10.07
2024-04-19T11:17:11.382Z,9.93
2024-04-19T11:19:39.691Z,9.80
2024-04-19T11:22:09.675Z,9.73
2024-04-19T11:24:39.484Z,9.61
2024-04-19T11:27:08.914Z,9.42
2024-04-19T11:29:36.890Z,9.33
2024-04-19T11:32:07.718Z,9.30
2024-04-19T11:34:40.219Z,9.31
2024-04-19T11:37:11.719Z,9.30
2024-04-19T11:39:41.506Z,9.26
2024-04-19T11:42:10.410Z,9.17
2024-04-19T11:44:45.553Z,9.13
2024-04-19T11:47:13.307Z,9.10
2024-04-19T11:49:43.636Z,9.06
2024-04-19T11:52:11.241Z,9.03
2024-04-19T11:54:39.023Z,9.00
2024-04-19T11:57:07.402Z,8.96
2024-04-19T11:59:35.936Z,8.99
2024-04-19T12:02:03.802Z,9.09
2024-04-19T12:04:31.598Z,9.25
2024-04-19T12:07:00.670Z,9.54
2024-04-19T12:09:28.945Z,9.88
2024-04-19T12:15:23.993Z,10.63
2024-04-19T12:17:30.446Z,10.79
2024-04-19T12:20:08.000Z,10.97
2024-04-19T12:22:48.564Z,11.12
2024-04-19T12:25:23.082Z,11.33
2024-04-19T12:27:51.185Z,11.52
2024-04-19T12:30:24.479Z,11.58
2024-04-19T12:32:52.227Z,11.60
2024-04-19T12:35:19.867Z,11.66
2024-04-19T12:37:50.388Z,11.84
2024-04-19T12:40:19.036Z,12.29
2024-04-19T12:42:47.254Z,12.69
2024-04-19T12:45:15.580Z,12.90
2024-04-19T12:48:11.155Z,12.94
2024-04-19T12:50:38.885Z,12.89
2024-04-19T12:53:06.603Z,12.74
2024-04-19T12:55:35.764Z,12.45
2024-04-19T12:58:03.384Z,12.16
2024-04-19T13:00:33.346Z,11.85
2024-04-19T13:03:01.851Z,11.53
2024-04-19T13:05:33.022Z,11.33
2024-04-19T13:08:00.914Z,11.42
2024-04-19T13:10:28.878Z,11.68
2024-04-19T13:12:57.735Z,11.83
2024-04-19T13:15:25.685Z,11.92
2024-04-19T13:17:54.260Z,11.91
2024-04-19T13:20:21.886Z,11.92
2024-04-19T13:22:49.486Z,12.01
2024-04-19T13:25:20.812Z,12.18
2024-04-19T13:27:48.461Z,12.36
2024-04-19T13:30:16.060Z,12.54
2024-04-19T13:32:44.659Z,12.71
2024-04-19T13:35:14.285Z,12.81
2024-04-19T13:37:41.966Z,12.88
2024-04-19T13:40:11.180Z,12.84
2024-04-19T13:42:39.636Z,12.81
2024-04-19T13:45:09.162Z,12.79
2024-04-19T13:47:37.400Z,12.77
2024-04-19T13:50:07.255Z,12.74
2024-04-19T13:52:34.857Z,12.68
2024-04-19T13:55:06.218Z,12.52
2024-04-19T13:57:34.497Z,12.37
2024-04-19T14:00:06.233Z,12.29
2024-04-19T14:02:35.159Z,12.19
2024-04-19T14:05:04.002Z,12.10
2024-04-19T14:07:31.749Z,11.98
2024-04-19T14:10:00.667Z,11.85
2024-04-19T14:12:30.834Z,11.68
2024-04-19T14:15:02.298Z,11.50
2024-04-19T14:17:31.111Z,11.30
2024-04-19T14:20:00.844Z,11.13
2024-04-19T14:22:28.829Z,10.98
2024-04-19T14:24:56.554Z,10.80
2024-04-19T14:27:26.074Z,10.66
2024-04-19T14:29:57.202Z,10.52
2024-04-19T14:32:28.894Z,10.44
2024-04-19T14:34:56.858Z,10.35
2024-04-19T14:37:24.805Z,10.25
2024-04-19T14:39:52.627Z,10.15
2024-04-19T14:42:22.351Z,10.08
2024-04-19T14:45:01.921Z,10.01
2024-04-19T14:47:31.342Z,9.94
2024-04-19T14:50:00.052Z,9.86
2024-04-19T14:52:29.934Z,9.75
2024-04-19T14:54:58.013Z,9.70
2024-04-19T14:57:26.866Z,9.63
2024-04-19T15:00:01.342Z,9.54
2024-04-19T15:02:36.134Z,9.43
2024-04-19T15:05:03.948Z,9.33
2024-04-19T15:07:32.457Z,9.26
2024-04-19T15:10:00.747Z,9.15
2024-04-19T15:12:30.836Z,9.13
2024-04-19T15:14:59.909Z,9.06
2024-04-19T15:17:27.911Z,8.96
2024-04-19T15:19:56.542Z,8.92
2024-04-19T15:22:25.931Z,8.86
2024-04-19T15:24:53.665Z,8.85
2024-04-19T15:27:21.300Z,8.87
2024-04-19T15:29:49.299Z,8.88
2024-04-19T15:32:19.879Z,8.93
2024-04-19T15:34:48.620Z,8.94
2024-04-19T15:37:17.102Z,8.94
2024-04-19T15:39:48.744Z,8.96
2024-04-19T15:42:16.952Z,8.98
2024-04-19T15:44:48.078Z,9.03
2024-04-19T15:47:15.995Z,9.07
2024-04-19T15:49:47.194Z,9.07
2024-04-19T15:52:16.933Z,9.04
2024-04-19T15:54:44.556Z,9.00
2024-04-19T15:57:13.241Z,8.94
2024-04-19T15:59:46.713Z,8.90
2024-04-19T16:02:14.685Z,8.83
2024-04-19T16:04:45.651Z,8.78
2024-04-19T16:07:14.170Z,8.71
2024-04-19T16:09:41.983Z,8.60
2024-04-19T16:12:09.959Z,8.59
2024-04-19T16:14:38.111Z,8.55
2024-04-19T16:17:06.083Z,8.49
2024-04-19T16:19:37.592Z,8.44
2024-04-19T16:22:05.863Z,8.40
2024-04-19T16:24:34.025Z,8.35
2024-04-19T16:27:03.118Z,8.27
2024-04-19T16:29:31.900Z,8.21
2024-04-19T16:31:59.502Z,8.16
2024-04-19T16:34:27.097Z,8.09
2024-04-19T16:36:55.045Z,8.02
2024-04-19T16:39:22.726Z,7.93
2024-04-19T16:41:50.457Z,7.86
2024-04-19T16:44:20.830Z,7.79
2024-04-19T16:46:50.697Z,7.74
2024-04-19T16:49:19.394Z,7.69
2024-04-19T16:51:57.724Z,7.63
2024-04-19T16:54:33.475Z,7.54
2024-04-19T16:57:02.154Z,7.52
2024-04-19T16:59:29.759Z,7.49
2024-04-19T17:01:57.711Z,7.47
2024-04-19T17:04:26.223Z,7.44
2024-04-19T17:06:56.893Z,7.39
2024-04-19T17:09:27.055Z,7.34
2024-04-19T17:11:55.464Z,7.31
2024-04-19T17:14:24.662Z,7.28
2024-04-19T17:16:55.435Z,7.21
2024-04-19T17:19:26.105Z,7.19
2024-04-19T17:21:55.106Z,7.16
2024-04-19T17:24:23.303Z,7.13
2024-04-19T17:26:55.478Z,7.09
2024-04-19T17:29:23.174Z,7.04
2024-04-19T17:31:57.764Z,6.99
2024-04-19T17:34:25.373Z,6.96
2024-04-19T17:36:54.577Z,6.91
2024-04-19T17:39:22.675Z,6.87
2024-04-19T17:41:50.246Z,6.82
2024-04-19T17:44:18.687Z,6.81
2024-04-19T17:49:46.995Z,6.75
2024-04-19T17:52:15.586Z,6.69
2024-04-19T17:54:50.084Z,6.65
2024-04-19T17:57:19.010Z,6.61
2024-04-19T17:59:51.674Z,6.59
2024-04-19T18:02:28.372Z,6.55
2024-04-19T18:04:57.729Z,6.48
2024-04-19T18:07:27.905Z,6.45
2024-04-19T18:09:56.682Z,6.40
2024-04-19T18:12:24.494Z,6.34
2024-04-19T18:14:52.345Z,6.31
2024-04-19T18:17:22.803Z,6.27
2024-04-19T18:20:16.145Z,6.24
2024-04-19T18:22:45.119Z,6.21
2024-04-19T18:25:14.052Z,6.19
2024-04-19T18:27:44.633Z,6.16
2024-04-19T18:30:19.502Z,6.12
2024-04-19T18:32:48.897Z,6.09
2024-04-19T18:35:23.544Z,6.05
2024-04-19T18:37:54.017Z,6.02
2024-04-19T18:40:26.370Z,6.00
2024-04-19T18:42:54.284Z,5.98
2024-04-19T18:45:28.645Z,5.96
2024-04-19T18:47:58.592Z,5.95
2024-04-19T18:50:27.376Z,5.93
2024-04-19T18:52:57.003Z,5.92
2024-04-19T18:58:26.123Z,5.88
2024-04-19T19:00:55.626Z,5.87
2024-04-19T19:03:26.312Z,5.89
2024-04-19T19:06:14.953Z,5.88
2024-04-19T19:08:46.866Z,5.88
2024-04-19T19:11:34.031Z,5.87
2024-04-19T19:14:08.420Z,5.79
2024-04-19T19:16:38.568Z,5.85
2024-04-19T19:19:16.523Z,5.81
2024-04-19T19:21:54.599Z,5.83
2024-04-19T19:24:42.788Z,5.83
2024-04-19T19:30:46.668Z,5.82
2024-04-19T19:33:18.890Z,5.80
2024-04-19T19:36:11.192Z,5.80
2024-04-19T19:38:43.688Z,5.80
2024-04-19T19:41:13.678Z,5.80
2024-04-19T19:43:42.329Z,5.80
2024-04-19T19:46:11.508Z,5.80
2024-04-19T19:48:40.594Z,5.80
2024-04-19T19:51:20.073Z,5.81
2024-04-19T19:53:50.019Z,5.80
2024-04-19T19:56:20.529Z,5.80
2024-04-19T19:58:49.736Z,5.81
2024-04-19T20:01:48.008Z,5.80
2024-04-19T20:04:34.229Z,5.79
2024-04-19T20:07:03.088Z,5.79
2024-04-19T20:09:31.117Z,5.78
2024-04-19T20:12:03.093Z,5.77
2024-04-19T20:17:28.953Z,5.74
2024-04-19T20:19:58.574Z,5.72
2024-04-19T20:22:26.121Z,5.70
2024-04-19T20:24:53.940Z,5.69
2024-04-19T20:27:23.275Z,5.69
2024-04-19T20:29:50.898Z,5.69
2024-04-19T20:32:18.786Z,5.70
2024-04-19T20:34:46.971Z,5.67
2024-04-19T20:37:14.976Z,5.69
2024-04-19T20:39:42.744Z,5.64
2024-04-19T20:42:10.357Z,5.67
2024-04-19T20:44:39.990Z,5.67
2024-04-19T20:47:09.131Z,5.67
2024-04-19T20:49:37.662Z,5.66
2024-04-19T20:52:05.690Z,5.67
2024-04-19T20:54:34.355Z,5.67
2024-04-19T20:57:05.800Z,5.67
2024-04-19T20:59:39.523Z,5.67
2024-04-19T21:02:07.633Z,5.67
2024-04-19T21:04:46.528Z,5.66
2024-04-19T21:07:17.659Z,5.64
2024-04-19T21:09:55.506Z,5.64
2024-04-19T21:12:31.601Z,5.62
2024-04-19T21:15:20.053Z,5.63
2024-04-19T21:17:51.970Z,5.62
2024-04-19T21:20:20.045Z,5.60
2024-04-19T21:22:47.760Z,5.60
2024-04-19T21:25:19.371Z,5.60
2024-04-19T21:27:51.311Z,5.57
2024-04-19T21:30:22.704Z,5.60
2024-04-19T21:32:51.712Z,5.61
2024-04-19T21:35:25.111Z,5.60
2024-04-19T21:37:54.113Z,5.60
2024-04-19T21:40:27.072Z,5.61
2024-04-19T21:42:56.693Z,5.60
2024-04-19T21:45:26.068Z,5.59
2024-04-19T21:47:54.384Z,5.58
2024-04-19T21:50:23.904Z,5.56
2024-04-19T21:52:51.762Z,5.54
2024-04-19T21:55:19.443Z,5.52
2024-04-19T21:57:47.680Z,5.51
2024-04-19T22:00:18.884Z,5.50
2024-04-19T22:02:47.192Z,5.47
2024-04-19T22:05:15.571Z,5.40
2024-04-19T22:07:45.384Z,5.40
2024-04-19T22:10:13.152Z,5.37
2024-04-19T22:12:40.788Z,5.34
2024-04-19T22:15:09.167Z,5.29
2024-04-19T22:17:37.765Z,5.29
2024-04-19T22:20:09.150Z,5.26
2024-04-19T22:22:36.851Z,5.20
2024-04-19T22:25:05.626Z,5.19
2024-04-19T22:27:34.846Z,5.16
2024-04-19T22:30:10.108Z,5.11
2024-04-19T22:33:00.091Z,5.13
2024-04-19T22:35:28.894Z,5.10
2024-04-19T22:37:56.449Z,5.07
2024-04-19T22:40:23.991Z,5.03
2024-04-19T22:42:54.690Z,5.01
2024-04-19T22:45:22.316Z,4.99
2024-04-19T22:47:49.857Z,4.98
2024-04-19T22:50:17.440Z,4.95
2024-04-19T22:52:44.923Z,4.93
2024-04-19T22:55:12.463Z,4.90
2024-04-19T22:57:40.086Z,4.89
2024-04-19T23:00:08.474Z,4.89
2024-04-19T23:02:36.224Z,4.87
2024-04-19T23:05:04.051Z,4.86
2024-04-19T23:07:31.603Z,4.84
2024-04-19T23:09:59.308Z,4.83
2024-04-19T23:12:26.919Z,4.81
2024-04-19T23:14:54.497Z,4.80
2024-04-19T23:17:23.165Z,4.75
2024-04-19T23:19:51.172Z,4.76
2024-04-19T23:22:18.676Z,4.76
2024-04-19T23:24:46.784Z,4.76
2024-04-19T23:27:14.300Z,4.74
2024-04-19T23:29:42.871Z,4.74
2024-04-19T23:32:10.960Z,4.73
2024-04-19T23:34:38.679Z,4.72
2024-04-19T23:37:06.256Z,4.70
2024-04-19T23:39:33.839Z,4.66
2024-04-19T23:42:01.405Z,4.66
2024-04-19T23:44:28.933Z,4.66
2024-04-19T23:46:56.493Z,4.64
2024-04-19T23:49:24.041Z,4.62
2024-04-19T23:51:52.628Z,4.60
2024-04-19T23:54:20.229Z,4.59
2024-04-19T23:56:47.798Z,4.54
2024-04-19T23:59:15.561Z,4.50
